Riverhurst, Canada
Current Conditions -  °F | °C
As of 6:00 AM on Saturday 25 Oct 2014 (Local Time) from CYYN Reporting Station
Scattered Clouds Scattered Clouds  
Wind Chill: 23°   Ceiling: Unl
Heat Index: 32°   Visibility: 9mi
Dew Point: 27°   Wind: 12mph
Humidity: 80%   Direction: 220°SW
Pressure: 30.05"   Gusts: NA
Location:  50.92°N, 106.85°W
Report Text: CYYN 251200Z AUTO 22010KT 9SM SCT150 00/M03 A3005 RMK SLP200
Loading
Personal Weather Stations






























Interactive Weather Map
Tropical Storm Tracking
New forecast layout! Learn more

10-Day Weather Forecast

Advertisements
Track Severe Weather on mobile